Terminal Aerodrome Forecast
Issued by NWS Mt. Holly, NJ

Home | Current Version | Previous Version | Text Only | Print | Product List | Glossary On
Versions: 1 2 3 4 5 6 7 8 9 10 11 12 13 14 15 16 17 18 19 20 21 22 23 24 25
464
FTUS41 KPHI 291508 AAA
TAFPHL
TAF AMD
KPHL 291508Z 2915/3018 07015G25KT P6SM OVC010
      TEMPO 2917/2920 5SM -RADZ BR BKN007 OVC010
     FM292000 07017G27KT P6SM OVC015
     FM300000 07012G23KT 5SM -SHRA OVC008
     FM301200 04014G24KT 3SM -SHRA OVC008=

USA.gov is the U.S. government's official web portal to all federal, state and local government web resources and services.